createdAt,value
2022-07-31T00:00:33.711Z,0.87
2022-07-31T00:03:05.602Z,0.70
2022-07-31T00:05:41.552Z,0.60
2022-07-31T00:08:11.010Z,0.70
2022-07-31T00:10:42.857Z,0.70
2022-07-31T00:13:14.662Z,0.63
2022-07-31T00:15:46.478Z,0.60
2022-07-31T00:18:18.288Z,1.00
2022-07-31T00:20:50.194Z,0.90
2022-07-31T00:23:22.010Z,1.23
2022-07-31T00:25:53.808Z,1.10
2022-07-31T00:28:25.622Z,1.73
2022-07-31T00:30:57.428Z,1.40
2022-07-31T00:33:29.222Z,1.87
2022-07-31T00:36:01.214Z,1.97
2022-07-31T00:38:33.019Z,2.17
2022-07-31T00:41:05.214Z,1.97
2022-07-31T00:43:37.031Z,2.20
2022-07-31T00:46:14.514Z,2.30
2022-07-31T00:48:42.250Z,2.30
2022-07-31T00:51:14.069Z,2.00
2022-07-31T00:53:46.615Z,2.17
2022-07-31T00:56:18.404Z,2.40
2022-07-31T00:58:50.236Z,2.53
2022-07-31T01:01:22.090Z,2.87
2022-07-31T01:03:54.010Z,2.60
2022-07-31T01:06:25.841Z,2.63
2022-07-31T01:08:57.641Z,2.43
2022-07-31T01:11:29.471Z,2.90
2022-07-31T01:14:01.282Z,2.37
2022-07-31T01:16:33.093Z,2.30
2022-07-31T01:19:04.943Z,2.67
2022-07-31T01:21:36.760Z,2.50
2022-07-31T01:24:08.539Z,2.80
2022-07-31T01:27:00.004Z,2.50
2022-07-31T01:29:32.262Z,2.50
2022-07-31T01:32:04.341Z,2.20
2022-07-31T01:34:36.517Z,2.50
2022-07-31T01:37:10.535Z,2.30
2022-07-31T01:39:43.334Z,2.40
2022-07-31T01:42:15.495Z,2.37
2022-07-31T01:44:47.338Z,2.40
2022-07-31T01:47:19.168Z,2.50
2022-07-31T01:49:50.952Z,2.07
2022-07-31T01:52:24.486Z,2.53
2022-07-31T01:54:56.290Z,2.20
2022-07-31T01:57:28.108Z,2.37
2022-07-31T02:00:01.581Z,2.30
2022-07-31T02:02:45.932Z,2.17
2022-07-31T02:05:18.705Z,1.97
2022-07-31T02:07:50.923Z,2.10
2022-07-31T02:10:24.455Z,2.03
2022-07-31T02:12:56.254Z,2.47
2022-07-31T02:15:28.085Z,2.50
2022-07-31T02:17:59.950Z,2.40
2022-07-31T02:20:33.508Z,2.63
2022-07-31T02:23:05.315Z,2.07
2022-07-31T02:25:37.120Z,2.43
2022-07-31T02:28:09.090Z,2.30
2022-07-31T02:30:40.895Z,2.10
2022-07-31T02:33:13.245Z,2.47
2022-07-31T02:35:45.850Z,3.67
2022-07-31T02:38:22.685Z,2.43
2022-07-31T02:40:52.917Z,2.93
2022-07-31T02:43:24.700Z,2.93
2022-07-31T02:45:56.871Z,2.40
2022-07-31T02:48:29.043Z,2.43
2022-07-31T02:51:02.553Z,2.13
2022-07-31T02:53:34.405Z,2.50
2022-07-31T02:56:07.179Z,2.30
2022-07-31T02:58:39.653Z,2.20
2022-07-31T03:01:11.493Z,2.00
2022-07-31T03:03:43.409Z,2.37
2022-07-31T03:06:15.371Z,2.10
2022-07-31T03:08:47.274Z,1.77
2022-07-31T03:11:20.799Z,1.90
2022-07-31T03:13:52.861Z,2.47
2022-07-31T03:16:24.737Z,2.00
2022-07-31T03:18:56.909Z,2.20
2022-07-31T03:21:28.873Z,1.70
2022-07-31T03:24:00.695Z,1.90
2022-07-31T03:26:34.222Z,1.73
2022-07-31T03:29:39.065Z,2.13
2022-07-31T03:31:40.432Z,1.83
2022-07-31T03:34:12.232Z,2.43
2022-07-31T03:36:45.506Z,1.77
2022-07-31T03:39:17.656Z,2.07
2022-07-31T03:41:51.328Z,1.90
2022-07-31T03:44:23.904Z,1.87
2022-07-31T03:46:56.175Z,2.17
2022-07-31T03:49:28.555Z,2.57
2022-07-31T03:52:02.282Z,2.20
2022-07-31T03:54:34.319Z,2.20
2022-07-31T03:57:20.243Z,1.80
2022-07-31T03:59:52.894Z,2.17
2022-07-31T04:02:25.207Z,2.37
2022-07-31T04:04:58.770Z,2.00
2022-07-31T04:07:30.627Z,2.00
2022-07-31T04:10:02.795Z,2.27
2022-07-31T04:12:35.071Z,2.30
2022-07-31T04:15:07.029Z,2.33
2022-07-31T04:17:39.194Z,1.70
2022-07-31T04:20:12.648Z,2.10
2022-07-31T04:22:44.484Z,2.10
2022-07-31T04:25:19.615Z,1.93
2022-07-31T04:27:53.126Z,2.10
2022-07-31T04:30:25.096Z,3.17
2022-07-31T04:32:57.585Z,2.90
2022-07-31T04:35:30.284Z,2.27
2022-07-31T04:38:02.102Z,2.20
2022-07-31T04:40:35.645Z,2.40
2022-07-31T04:43:07.458Z,2.33
2022-07-31T04:45:39.295Z,2.33
2022-07-31T04:48:12.044Z,2.03
2022-07-31T04:50:43.942Z,2.60
2022-07-31T04:53:15.928Z,2.83
2022-07-31T04:55:48.130Z,2.67
2022-07-31T04:58:19.962Z,2.33
2022-07-31T05:00:52.076Z,2.30
2022-07-31T05:03:23.951Z,2.67
2022-07-31T05:05:56.229Z,3.10
2022-07-31T05:08:28.285Z,2.17
2022-07-31T05:11:00.157Z,2.20
2022-07-31T05:13:33.670Z,2.37
2022-07-31T05:16:06.222Z,2.20
2022-07-31T05:18:38.088Z,2.17
2022-07-31T09:20:25.830Z,7.10
2022-07-31T10:33:56.157Z,6.50
2022-07-31T10:36:46.174Z,6.47
2022-07-31T10:39:25.692Z,5.90
2022-07-31T10:42:02.044Z,5.20
2022-07-31T10:44:38.532Z,5.80
2022-07-31T10:47:15.672Z,6.43
2022-07-31T10:49:51.898Z,6.33
2022-07-31T10:52:25.434Z,6.80
2022-07-31T10:54:58.943Z,7.47
2022-07-31T10:57:56.182Z,6.63
2022-07-31T13:25:46.263Z,1.30
2022-07-31T13:28:18.046Z,1.70
2022-07-31T13:30:54.652Z,2.00
2022-07-31T13:33:23.266Z,1.20
2022-07-31T13:35:55.068Z,1.27
2022-07-31T13:38:26.879Z,1.63
2022-07-31T13:40:58.682Z,1.73
2022-07-31T13:43:30.521Z,1.40
2022-07-31T13:46:02.357Z,1.40
2022-07-31T13:48:34.174Z,1.50
2022-07-31T13:51:05.906Z,1.50
2022-07-31T13:53:37.709Z,2.23
2022-07-31T13:56:09.483Z,1.50
2022-07-31T13:58:41.320Z,1.53
2022-07-31T14:01:13.378Z,1.40
2022-07-31T14:03:45.348Z,1.40
2022-07-31T14:06:17.578Z,1.60
2022-07-31T14:08:50.584Z,1.33
2022-07-31T14:11:22.969Z,1.40
2022-07-31T14:13:54.753Z,1.50
2022-07-31T14:16:28.296Z,1.60
2022-07-31T14:19:00.059Z,1.30
2022-07-31T14:21:31.872Z,1.47
2022-07-31T14:24:03.872Z,1.03
2022-07-31T14:26:35.693Z,1.30
2022-07-31T14:29:07.513Z,1.10
2022-07-31T14:31:39.317Z,1.07
2022-07-31T14:34:11.121Z,1.50
2022-07-31T14:36:42.963Z,1.23
2022-07-31T14:39:14.736Z,1.07
2022-07-31T14:41:46.567Z,1.10
2022-07-31T14:44:21.205Z,1.17
2022-07-31T14:46:51.904Z,1.50
2022-07-31T14:49:23.780Z,1.40
2022-07-31T14:51:55.651Z,1.80
2022-07-31T14:54:27.456Z,1.60
2022-07-31T14:57:01.509Z,1.80
2022-07-31T14:59:32.787Z,1.73
2022-07-31T15:02:04.767Z,1.60
2022-07-31T15:04:36.554Z,2.00
2022-07-31T15:07:33.639Z,1.90
2022-07-31T15:09:42.015Z,3.17
2022-07-31T15:12:13.829Z,2.20
2022-07-31T15:14:45.707Z,2.30
2022-07-31T15:17:17.503Z,2.53
2022-07-31T15:19:49.340Z,2.30
2022-07-31T15:22:21.164Z,2.40
2022-07-31T15:24:52.947Z,2.27
2022-07-31T15:27:24.796Z,2.67
2022-07-31T15:30:05.765Z,2.67
2022-07-31T15:32:30.099Z,2.80
2022-07-31T15:35:01.936Z,2.47
2022-07-31T15:37:33.778Z,3.27
2022-07-31T15:40:05.766Z,2.67
2022-07-31T15:42:37.501Z,3.10
2022-07-31T15:45:09.342Z,2.80
2022-07-31T15:47:41.208Z,3.57
2022-07-31T15:50:13.027Z,3.50
2022-07-31T15:52:44.859Z,2.73
2022-07-31T15:55:16.679Z,3.57
2022-07-31T15:57:48.497Z,2.40
2022-07-31T16:00:20.322Z,3.20
2022-07-31T16:02:52.132Z,2.47
2022-07-31T16:05:36.175Z,2.20
2022-07-31T16:08:28.940Z,2.57
2022-07-31T16:10:31.429Z,1.93
2022-07-31T16:13:03.218Z,1.90
2022-07-31T16:15:35.079Z,2.20
2022-07-31T16:18:06.871Z,1.97
2022-07-31T16:20:40.307Z,1.90
2022-07-31T16:23:12.112Z,2.20
2022-07-31T16:25:43.975Z,1.67
2022-07-31T16:28:15.811Z,2.07
2022-07-31T16:30:47.662Z,2.20
2022-07-31T16:33:19.456Z,1.80
2022-07-31T16:35:51.355Z,2.13
2022-07-31T16:38:23.152Z,2.40
2022-07-31T16:40:54.957Z,2.10
2022-07-31T16:43:49.792Z,2.00
2022-07-31T16:46:00.311Z,2.13
2022-07-31T16:48:32.102Z,2.00
2022-07-31T16:51:03.939Z,2.10
2022-07-31T16:54:13.071Z,2.10
2022-07-31T16:56:09.234Z,2.10
2022-07-31T16:58:41.035Z,3.03
2022-07-31T17:01:59.371Z,2.50
2022-07-31T17:04:00.369Z,1.70
2022-07-31T17:06:34.377Z,1.80
2022-07-31T17:08:53.180Z,2.33
2022-07-31T17:11:25.019Z,2.90
2022-07-31T17:13:56.818Z,1.90
2022-07-31T17:16:28.694Z,2.33
2022-07-31T17:19:00.493Z,1.87
2022-07-31T17:21:33.925Z,1.43
2022-07-31T17:24:06.334Z,1.93
2022-07-31T17:26:38.165Z,1.67
2022-07-31T17:29:10.002Z,2.47
2022-07-31T17:31:41.804Z,1.83
2022-07-31T17:34:13.672Z,1.87
2022-07-31T17:36:45.462Z,2.07
2022-07-31T17:39:17.411Z,1.93
2022-07-31T17:41:49.209Z,2.03
2022-07-31T17:44:21.029Z,2.43
2022-07-31T17:46:52.853Z,1.80
2022-07-31T17:49:24.686Z,2.00
2022-07-31T17:51:57.716Z,2.20
2022-07-31T17:54:29.983Z,2.20
2022-07-31T17:57:01.802Z,1.53
2022-07-31T17:59:33.643Z,1.73
2022-07-31T18:02:05.769Z,2.30
2022-07-31T18:04:37.766Z,2.77
2022-07-31T18:07:09.597Z,1.90
2022-07-31T18:09:41.391Z,1.90
2022-07-31T18:12:15.686Z,2.93
2022-07-31T18:14:46.669Z,1.70
2022-07-31T18:17:18.490Z,1.73
2022-07-31T18:19:50.312Z,1.80
2022-07-31T18:22:22.170Z,2.10
2022-07-31T18:24:53.955Z,2.00
2022-07-31T18:27:25.995Z,1.90
2022-07-31T18:29:57.798Z,1.80
2022-07-31T18:32:29.606Z,1.90
2022-07-31T20:52:58.437Z,3.13
2022-07-31T20:55:30.232Z,2.30
2022-07-31T20:58:02.043Z,2.40
2022-07-31T21:00:33.835Z,2.30
2022-07-31T21:03:05.663Z,1.93
2022-07-31T21:05:37.460Z,2.00
2022-07-31T21:08:09.287Z,2.00
2022-07-31T21:10:41.070Z,1.93
2022-07-31T21:13:12.904Z,1.80
2022-07-31T21:15:45.432Z,1.87
2022-07-31T21:18:17.410Z,2.20
2022-07-31T21:20:50.807Z,1.97
2022-07-31T21:23:22.828Z,2.13
2022-07-31T21:25:55.026Z,2.10
2022-07-31T21:28:26.890Z,2.03
2022-07-31T21:30:58.711Z,2.13
2022-07-31T21:33:30.534Z,2.40
2022-07-31T21:36:02.335Z,2.30
2022-07-31T21:38:34.136Z,2.10
2022-07-31T21:41:05.918Z,2.13
2022-07-31T21:43:58.208Z,2.57
2022-07-31T21:46:11.140Z,2.50
2022-07-31T21:48:44.558Z,2.70
2022-07-31T21:51:16.392Z,2.50
2022-07-31T21:53:48.188Z,2.80
2022-07-31T21:56:20.003Z,2.43
2022-07-31T21:58:51.821Z,3.03
2022-07-31T22:01:23.716Z,2.33
2022-07-31T22:03:55.626Z,2.27
2022-07-31T22:06:27.455Z,2.27
2022-07-31T22:08:59.248Z,2.53
2022-07-31T22:11:31.062Z,2.23
2022-07-31T22:14:02.859Z,2.17
2022-07-31T22:16:34.663Z,1.83
2022-07-31T22:19:06.462Z,2.17
2022-07-31T22:21:38.269Z,2.30
2022-07-31T22:24:10.041Z,1.90
2022-07-31T22:26:41.841Z,2.00
2022-07-31T22:29:13.634Z,2.13
2022-07-31T22:31:49.901Z,2.17
2022-07-31T22:34:36.975Z,2.07
2022-07-31T22:36:53.926Z,1.67
2022-07-31T22:39:25.746Z,2.00
2022-07-31T22:42:00.448Z,1.77
2022-07-31T22:44:30.949Z,2.33
2022-07-31T22:47:02.747Z,2.13
2022-07-31T22:49:34.599Z,2.00
2022-07-31T22:52:06.683Z,1.80
2022-07-31T22:54:38.797Z,2.17
2022-07-31T22:57:10.590Z,1.70
2022-07-31T22:59:42.425Z,1.40
2022-07-31T23:02:14.237Z,1.70
2022-07-31T23:04:46.157Z,1.20
2022-07-31T23:07:17.949Z,1.47
2022-07-31T23:09:49.749Z,1.40
2022-07-31T23:12:21.586Z,1.30
2022-07-31T23:14:55.013Z,1.40
2022-07-31T23:17:26.805Z,2.07
2022-07-31T23:19:58.613Z,1.30
2022-07-31T23:22:30.855Z,1.50
2022-07-31T23:25:03.819Z,1.53
2022-07-31T23:27:35.645Z,1.30
2022-07-31T23:30:07.469Z,1.33
2022-07-31T23:32:39.240Z,1.57
2022-07-31T23:35:11.001Z,1.70
2022-07-31T23:37:42.784Z,1.53
2022-07-31T23:40:14.585Z,1.67
2022-07-31T23:42:46.418Z,1.87
2022-07-31T23:45:19.837Z,1.40
2022-07-31T23:47:54.431Z,1.23
2022-07-31T23:50:27.836Z,1.40
2022-07-31T23:52:59.575Z,1.47
2022-07-31T23:55:31.372Z,1.43
2022-07-31T23:58:03.182Z,1.57
